createdAt,value
2023-03-06T00:00:36.151Z,981.00
2023-03-06T00:01:36.153Z,981.06
2023-03-06T00:02:36.120Z,981.01
2023-03-06T00:03:36.174Z,981.01
2023-03-06T00:04:36.101Z,981.02
2023-03-06T00:05:36.118Z,980.98
2023-03-06T00:06:36.081Z,980.96
2023-03-06T00:07:36.070Z,980.96
2023-03-06T00:08:36.058Z,981.01
2023-03-06T00:09:36.112Z,980.97
2023-03-06T00:10:36.043Z,980.92
2023-03-06T00:11:36.041Z,980.98
2023-03-06T00:12:36.026Z,980.95
2023-03-06T00:13:36.019Z,980.95
2023-03-06T00:14:36.047Z,980.97
2023-03-06T00:15:36.022Z,980.93
2023-03-06T00:16:36.027Z,980.96
2023-03-06T00:17:35.990Z,980.93
2023-03-06T00:18:35.967Z,980.92
2023-03-06T00:19:35.973Z,980.93
2023-03-06T00:20:35.955Z,980.88
2023-03-06T00:21:35.936Z,980.85
2023-03-06T00:22:35.928Z,980.86
2023-03-06T00:23:35.940Z,980.86
2023-03-06T00:24:35.907Z,980.84
2023-03-06T00:25:35.908Z,980.86
2023-03-06T00:26:35.889Z,980.89
2023-03-06T00:27:35.885Z,980.84
2023-03-06T00:28:35.933Z,980.79
2023-03-06T00:29:35.866Z,980.79
2023-03-06T00:30:35.855Z,980.82
2023-03-06T00:31:35.850Z,980.74
2023-03-06T00:32:35.889Z,980.80
2023-03-06T00:33:35.832Z,980.73
2023-03-06T00:34:35.825Z,980.70
2023-03-06T00:35:35.840Z,980.68
2023-03-06T00:36:35.821Z,980.73
2023-03-06T00:37:35.775Z,980.72
2023-03-06T00:38:35.764Z,980.76
2023-03-06T00:39:35.771Z,980.68
2023-03-06T00:40:35.745Z,980.72
2023-03-06T00:41:35.763Z,980.69
2023-03-06T00:42:35.746Z,980.69
2023-03-06T00:43:35.720Z,980.62
2023-03-06T00:44:35.711Z,980.63
2023-03-06T00:45:35.756Z,980.61
2023-03-06T00:46:35.702Z,980.60
2023-03-06T00:47:35.694Z,980.60
2023-03-06T00:48:35.666Z,980.60
2023-03-06T00:49:35.690Z,980.61
2023-03-06T00:50:35.657Z,980.58
2023-03-06T00:51:35.634Z,980.63
2023-03-06T00:52:35.667Z,980.61
2023-03-06T00:53:35.619Z,980.58
2023-03-06T00:54:35.614Z,980.52
2023-03-06T00:55:35.600Z,980.53
2023-03-06T00:56:35.590Z,980.52
2023-03-06T00:57:35.624Z,980.49
2023-03-06T00:58:35.601Z,980.47
2023-03-06T00:59:35.585Z,980.48
2023-03-06T01:00:35.636Z,980.47
2023-03-06T01:01:35.546Z,980.41
2023-03-06T01:02:35.596Z,980.45
2023-03-06T01:03:35.561Z,980.42
2023-03-06T01:04:35.521Z,980.44
2023-03-06T01:05:35.499Z,980.41
2023-03-06T01:06:35.471Z,980.42
2023-03-06T01:07:35.498Z,980.39
2023-03-06T01:08:35.466Z,980.38
2023-03-06T01:09:35.486Z,980.29
2023-03-06T01:10:35.436Z,980.31
2023-03-06T01:11:36.447Z,980.32
2023-03-06T01:12:35.433Z,980.29
2023-03-06T01:13:35.403Z,980.21
2023-03-06T01:14:35.420Z,980.25
2023-03-06T01:15:35.410Z,980.25
2023-03-06T01:16:35.439Z,980.22
2023-03-06T01:17:35.393Z,980.15
2023-03-06T01:18:35.398Z,980.07
2023-03-06T01:19:35.362Z,980.12
2023-03-06T01:20:35.351Z,980.12
2023-03-06T01:21:35.345Z,980.19
2023-03-06T01:23:07.235Z,980.14
2023-03-06T01:23:35.331Z,979.99
2023-03-06T01:24:35.315Z,980.08
2023-03-06T01:25:35.302Z,980.06
2023-03-06T01:26:35.322Z,980.06
2023-03-06T01:27:35.286Z,980.11
2023-03-06T01:28:35.308Z,980.09
2023-03-06T01:29:35.269Z,980.04
2023-03-06T01:30:35.255Z,980.03
2023-03-06T01:31:35.315Z,980.02
2023-03-06T01:32:35.307Z,980.06
2023-03-06T01:33:35.215Z,980.01
2023-03-06T01:34:35.224Z,979.98
2023-03-06T01:35:35.302Z,979.96
2023-03-06T01:36:35.217Z,979.91
2023-03-06T01:37:35.231Z,979.95
2023-03-06T01:38:35.176Z,979.89
2023-03-06T01:39:35.162Z,979.88
2023-03-06T01:40:35.157Z,979.87
2023-03-06T01:41:35.158Z,979.87
2023-03-06T01:42:35.162Z,979.84
2023-03-06T01:43:35.139Z,979.83
2023-03-06T01:44:35.180Z,979.76
2023-03-06T01:45:35.177Z,979.75
2023-03-06T01:46:35.109Z,979.82
2023-03-06T01:47:35.084Z,979.77
2023-03-06T01:48:35.379Z,979.78
2023-03-06T01:49:35.080Z,979.77
2023-03-06T01:50:35.058Z,979.74
2023-03-06T01:51:35.082Z,979.75
2023-03-06T01:52:35.026Z,979.77
2023-03-06T01:53:35.080Z,979.63
2023-03-06T01:54:35.019Z,979.62
2023-03-06T01:55:35.020Z,979.65
2023-03-06T01:56:35.014Z,979.67
2023-03-06T01:57:34.983Z,979.66
2023-03-06T01:58:34.987Z,979.59
2023-03-06T01:59:34.995Z,979.61
2023-03-06T02:00:34.961Z,979.60
2023-03-06T02:01:34.947Z,979.54
2023-03-06T02:02:35.017Z,979.51
2023-03-06T02:03:34.930Z,979.51
2023-03-06T02:04:34.953Z,979.53
2023-03-06T02:05:34.921Z,979.55
2023-03-06T02:06:34.892Z,979.52
2023-03-06T02:07:34.894Z,979.52
2023-03-06T02:08:34.881Z,979.51
2023-03-06T02:09:34.891Z,979.50
2023-03-06T02:10:34.896Z,979.47
2023-03-06T02:11:34.909Z,979.43
2023-03-06T02:12:34.848Z,979.52
2023-03-06T02:13:34.860Z,979.48
2023-03-06T02:14:34.818Z,979.44
2023-03-06T02:15:34.808Z,979.46
2023-03-06T02:16:34.831Z,979.43
2023-03-06T02:17:34.785Z,979.43
2023-03-06T02:18:34.814Z,979.38
2023-03-06T02:19:34.776Z,979.35
2023-03-06T02:20:34.784Z,979.43
2023-03-06T02:21:34.764Z,979.41
2023-03-06T02:22:34.771Z,979.38
2023-03-06T02:23:34.758Z,979.44
2023-03-06T02:24:34.723Z,979.36
2023-03-06T02:25:34.708Z,979.35
2023-03-06T02:26:34.718Z,979.39
2023-03-06T02:27:34.712Z,979.43
2023-03-06T02:28:34.690Z,979.40
2023-03-06T02:29:34.704Z,979.40
2023-03-06T02:30:34.903Z,979.38
2023-03-06T02:31:34.659Z,979.32
2023-03-06T02:32:34.730Z,979.34
2023-03-06T02:33:34.672Z,979.35
2023-03-06T02:34:34.646Z,979.28
2023-03-06T02:35:34.681Z,979.35
2023-03-06T02:36:34.603Z,979.32
2023-03-06T02:37:34.627Z,979.32
2023-03-06T02:38:34.584Z,979.29
2023-03-06T02:39:34.627Z,979.29
2023-03-06T02:40:34.562Z,979.25
2023-03-06T02:41:34.570Z,979.19
2023-03-06T02:42:34.568Z,979.25
2023-03-06T02:43:34.559Z,979.21
2023-03-06T02:44:34.576Z,979.22
2023-03-06T02:45:34.523Z,979.20
2023-03-06T02:46:34.562Z,979.16
2023-03-06T02:47:34.521Z,979.18
2023-03-06T02:48:34.497Z,979.15
2023-03-06T02:49:34.483Z,979.19
2023-03-06T02:50:34.474Z,979.11
2023-03-06T02:51:34.471Z,979.15
2023-03-06T02:52:34.461Z,979.08
2023-03-06T02:53:34.437Z,979.08
2023-03-06T02:54:34.447Z,979.14
2023-03-06T02:55:34.435Z,979.05
2023-03-06T02:56:34.439Z,979.09
2023-03-06T02:57:34.423Z,979.07
2023-03-06T02:58:34.410Z,979.11
2023-03-06T02:59:34.383Z,979.00
2023-03-06T03:00:34.374Z,979.02
2023-03-06T03:01:34.433Z,979.03
2023-03-06T03:02:34.343Z,978.97
2023-03-06T03:03:34.364Z,978.96
2023-03-06T03:04:34.384Z,978.99
2023-03-06T03:05:34.325Z,978.96
2023-03-06T03:06:34.324Z,978.97
2023-03-06T03:07:34.293Z,978.96
2023-03-06T03:08:34.285Z,978.93
2023-03-06T03:09:34.311Z,978.95
2023-03-06T03:10:34.267Z,978.99
2023-03-06T03:11:34.251Z,978.99
2023-03-06T03:12:34.250Z,978.95
2023-03-06T03:13:34.234Z,978.97
2023-03-06T03:14:34.253Z,978.97
2023-03-06T03:15:34.288Z,978.95
2023-03-06T03:16:34.210Z,978.94
2023-03-06T03:17:34.197Z,979.01
2023-03-06T03:18:34.188Z,978.91
2023-03-06T03:19:34.175Z,978.87
2023-03-06T03:20:34.191Z,978.93
2023-03-06T03:21:34.157Z,978.89
2023-03-06T03:22:34.149Z,978.89
2023-03-06T03:23:34.132Z,978.90
2023-03-06T03:24:34.205Z,978.89
2023-03-06T03:25:34.113Z,978.92
2023-03-06T03:26:34.118Z,978.87
2023-03-06T03:27:34.094Z,978.88
2023-03-06T03:28:34.092Z,978.85
2023-03-06T03:29:34.096Z,978.94
2023-03-06T03:30:34.070Z,978.89
2023-03-06T03:31:34.105Z,978.84
2023-03-06T03:32:34.156Z,978.86
2023-03-06T03:33:34.052Z,978.89
2023-03-06T03:34:34.032Z,978.89
2023-03-06T03:35:34.050Z,978.87
2023-03-06T03:36:34.051Z,978.87
2023-03-06T03:37:34.027Z,978.84
2023-03-06T03:38:33.996Z,978.80
2023-03-06T03:39:33.985Z,978.83
2023-03-06T03:40:33.988Z,978.76
2023-03-06T03:41:34.006Z,978.81
2023-03-06T03:42:33.982Z,978.76
2023-03-06T03:43:34.945Z,978.78
2023-03-06T03:44:33.965Z,978.77
2023-03-06T03:45:33.927Z,978.79
2023-03-06T03:46:34.959Z,978.72
2023-03-06T03:47:33.931Z,978.76
2023-03-06T03:48:33.905Z,978.73
2023-03-06T03:49:33.906Z,978.76
2023-03-06T03:50:33.879Z,978.66
2023-03-06T03:51:33.872Z,978.70
2023-03-06T03:52:33.855Z,978.68
2023-03-06T03:53:33.849Z,978.70
2023-03-06T03:54:33.861Z,978.66
2023-03-06T03:55:33.845Z,978.63
2023-03-06T03:56:33.813Z,978.66
2023-03-06T03:57:33.801Z,978.53
2023-03-06T03:58:33.803Z,978.59
2023-03-06T03:59:33.775Z,978.58
2023-03-06T04:00:33.791Z,978.56
2023-03-06T04:01:33.826Z,978.53
2023-03-06T04:02:33.769Z,978.57
2023-03-06T04:03:33.758Z,978.56
2023-03-06T04:04:33.774Z,978.53
2023-03-06T04:05:33.730Z,978.49
2023-03-06T04:06:33.707Z,978.50
2023-03-06T04:07:33.715Z,978.46
2023-03-06T04:08:33.732Z,978.51
2023-03-06T04:09:33.680Z,978.50
2023-03-06T04:10:33.670Z,978.51
2023-03-06T04:11:33.681Z,978.48
2023-03-06T04:12:33.653Z,978.46
2023-03-06T04:13:33.661Z,978.47
2023-03-06T04:14:33.623Z,978.42
2023-03-06T04:15:33.626Z,978.37
2023-03-06T04:16:33.704Z,978.43
2023-03-06T04:17:33.610Z,978.39
2023-03-06T04:18:33.608Z,978.41
2023-03-06T04:19:33.602Z,978.40
2023-03-06T04:20:33.585Z,978.33
2023-03-06T04:21:33.575Z,978.40
2023-03-06T04:22:33.574Z,978.37
2023-03-06T04:23:33.541Z,978.33
2023-03-06T04:24:33.546Z,978.40
2023-03-06T04:25:33.531Z,978.37
2023-03-06T04:26:33.555Z,978.41
2023-03-06T04:27:33.508Z,978.34
2023-03-06T04:28:33.508Z,978.34
2023-03-06T04:29:33.492Z,978.29
2023-03-06T04:30:34.500Z,978.29
2023-03-06T04:31:33.535Z,978.22
2023-03-06T04:32:33.494Z,978.26
2023-03-06T04:33:33.451Z,978.25
2023-03-06T04:34:33.449Z,978.21
2023-03-06T04:35:33.485Z,978.22
2023-03-06T04:36:33.433Z,978.23
2023-03-06T04:37:33.441Z,978.21
2023-03-06T04:38:33.462Z,978.27
2023-03-06T04:39:33.414Z,978.16
2023-03-06T04:40:33.403Z,978.20
2023-03-06T04:41:33.395Z,978.20
2023-03-06T04:42:33.379Z,978.18
2023-03-06T04:43:33.372Z,978.13
2023-03-06T04:44:33.375Z,978.11
2023-03-06T04:45:33.410Z,978.10
2023-03-06T04:46:33.348Z,978.10
2023-03-06T04:47:33.324Z,978.09
2023-03-06T04:48:33.310Z,978.15
2023-03-06T04:49:33.309Z,978.09
2023-03-06T04:50:33.308Z,978.15
2023-03-06T04:51:33.308Z,978.08
2023-03-06T04:52:33.299Z,978.10
2023-03-06T04:53:33.275Z,978.09
2023-03-06T04:54:33.260Z,978.10
2023-03-06T04:55:33.268Z,978.09
2023-03-06T04:56:33.246Z,978.09
2023-03-06T04:57:33.262Z,978.09
2023-03-06T04:58:33.225Z,978.06
2023-03-06T04:59:34.210Z,978.02
2023-03-06T05:00:33.214Z,978.01
2023-03-06T05:01:33.198Z,978.02
2023-03-06T05:02:33.283Z,978.02
2023-03-06T05:03:33.183Z,977.96
2023-03-06T05:04:33.157Z,977.96
2023-03-06T05:05:33.149Z,977.97
2023-03-06T05:06:33.153Z,977.94
2023-03-06T05:07:33.115Z,977.95
2023-03-06T05:08:33.107Z,977.98
2023-03-06T05:09:33.109Z,978.00
2023-03-06T05:10:33.119Z,978.00
2023-03-06T05:11:33.106Z,977.97
2023-03-06T05:12:33.070Z,977.94
2023-03-06T05:13:33.074Z,977.93
2023-03-06T05:14:33.053Z,977.98
2023-03-06T05:15:33.070Z,977.93
2023-03-06T05:16:33.104Z,977.95
2023-03-06T05:17:33.026Z,977.88
2023-03-06T05:18:33.013Z,977.93
2023-03-06T05:19:33.006Z,977.82
2023-03-06T05:20:33.007Z,977.89
2023-03-06T05:21:32.981Z,977.93
2023-03-06T05:22:32.954Z,977.88
2023-03-06T05:23:32.961Z,977.90
2023-03-06T05:24:32.948Z,977.87
2023-03-06T05:25:32.968Z,977.86
2023-03-06T05:26:32.923Z,977.85
2023-03-06T05:27:32.926Z,977.87
2023-03-06T05:28:32.923Z,977.87
2023-03-06T05:29:32.886Z,977.84
2023-03-06T05:30:32.893Z,977.81
2023-03-06T05:31:32.946Z,977.82
2023-03-06T05:32:35.390Z,977.77
2023-03-06T05:33:33.864Z,977.75
2023-03-06T05:34:32.873Z,977.65
2023-03-06T05:35:32.922Z,977.66
2023-03-06T05:36:32.834Z,977.71
2023-03-06T05:37:32.839Z,977.70
2023-03-06T05:38:32.830Z,977.66
2023-03-06T05:39:32.816Z,977.66
2023-03-06T05:40:32.800Z,977.65
2023-03-06T05:41:33.804Z,977.68
2023-03-06T05:42:32.773Z,977.64
2023-03-06T05:43:32.765Z,977.70
2023-03-06T05:44:32.765Z,977.66
2023-03-06T05:45:32.805Z,977.73
2023-03-06T05:46:32.747Z,977.67
2023-03-06T05:47:32.730Z,977.71
2023-03-06T05:48:32.716Z,977.68
2023-03-06T05:49:32.722Z,977.65
2023-03-06T05:50:32.708Z,977.65
2023-03-06T05:51:32.681Z,977.65
2023-03-06T05:52:32.673Z,977.55
2023-03-06T05:53:32.697Z,977.53
2023-03-06T05:54:32.682Z,977.53
2023-03-06T05:55:32.643Z,977.59
2023-03-06T05:56:32.633Z,977.57
2023-03-06T05:57:32.630Z,977.56
2023-03-06T05:58:32.644Z,977.56
2023-03-06T05:59:32.604Z,977.57
2023-03-06T06:00:32.596Z,977.55
2023-03-06T06:01:32.591Z,977.66
2023-03-06T06:02:32.615Z,977.56
2023-03-06T06:03:32.612Z,977.64
2023-03-06T06:04:32.674Z,977.60
2023-03-06T06:05:32.554Z,977.63
2023-03-06T06:06:32.538Z,977.62
2023-03-06T06:07:32.532Z,977.64
2023-03-06T06:08:32.510Z,977.62
2023-03-06T06:09:33.521Z,977.62
2023-03-06T06:10:32.486Z,977.62
2023-03-06T06:11:33.510Z,977.73
2023-03-06T06:12:32.508Z,977.72
2023-03-06T06:13:32.467Z,977.64
2023-03-06T06:14:32.463Z,977.74
2023-03-06T06:15:32.461Z,977.68
2023-03-06T06:16:32.450Z,977.68
2023-03-06T06:17:32.446Z,977.67
2023-03-06T06:18:32.418Z,977.65
2023-03-06T06:19:32.410Z,977.65
2023-03-06T06:20:32.418Z,977.67
2023-03-06T06:21:32.406Z,977.66
2023-03-06T06:22:32.395Z,977.72
2023-03-06T06:23:32.378Z,977.64
2023-03-06T06:24:33.363Z,977.71
2023-03-06T06:25:32.366Z,977.70
2023-03-06T06:26:32.360Z,977.62
2023-03-06T06:27:32.337Z,977.64
2023-03-06T06:28:32.346Z,977.66
2023-03-06T06:29:32.316Z,977.63
2023-03-06T06:30:32.331Z,977.65
2023-03-06T06:31:32.379Z,977.66
2023-03-06T06:32:32.340Z,977.67
2023-03-06T06:33:32.298Z,977.69
2023-03-06T06:34:32.268Z,977.65
2023-03-06T06:35:32.307Z,977.60
2023-03-06T06:36:32.268Z,977.62
2023-03-06T06:37:32.240Z,977.62
2023-03-06T06:38:32.224Z,977.57
2023-03-06T06:39:32.222Z,977.61
2023-03-06T06:40:32.214Z,977.59
2023-03-06T06:41:56.909Z,977.62
2023-03-06T06:42:37.161Z,977.63
2023-03-06T06:43:34.186Z,977.55
2023-03-06T06:44:32.177Z,977.61
2023-03-06T06:45:32.153Z,977.60
2023-03-06T06:47:19.293Z,977.62
2023-03-06T06:47:34.267Z,977.66
2023-03-06T06:48:32.130Z,977.67
2023-03-06T06:49:32.149Z,977.64
2023-03-06T06:50:32.128Z,977.61
2023-03-06T06:51:32.117Z,977.63
2023-03-06T06:52:32.089Z,977.62
2023-03-06T06:53:32.087Z,977.59
2023-03-06T06:54:32.092Z,977.61
2023-03-06T06:55:32.062Z,977.59
2023-03-06T06:56:32.058Z,977.51
2023-03-06T06:57:32.072Z,977.60
2023-03-06T06:58:32.031Z,977.61
2023-03-06T06:59:32.021Z,977.55
2023-03-06T07:00:33.092Z,977.59
2023-03-06T07:01:32.008Z,977.55
2023-03-06T07:02:32.006Z,977.60
2023-03-06T07:03:32.005Z,977.59
2023-03-06T07:04:31.992Z,977.61
2023-03-06T07:05:31.996Z,977.64
2023-03-06T07:06:31.955Z,977.63
2023-03-06T07:07:31.961Z,977.59
2023-03-06T07:08:31.946Z,977.61
2023-03-06T07:09:31.942Z,977.68
2023-03-06T07:10:31.949Z,977.68
2023-03-06T07:11:31.901Z,977.62
2023-03-06T07:12:31.906Z,977.62
2023-03-06T07:13:31.898Z,977.63
2023-03-06T07:14:31.904Z,977.59
2023-03-06T07:15:31.879Z,977.64
2023-03-06T07:16:31.855Z,977.63
2023-03-06T07:17:31.877Z,977.67
2023-03-06T07:18:31.847Z,977.66
2023-03-06T07:19:31.820Z,977.64
2023-03-06T07:20:31.814Z,977.67
2023-03-06T07:21:31.806Z,977.65
2023-03-06T07:22:41.445Z,977.71
2023-03-06T07:23:33.781Z,977.63
2023-03-06T07:25:04.893Z,977.72
2023-03-06T07:25:31.767Z,977.70
2023-03-06T07:26:34.521Z,977.69
2023-03-06T07:27:32.783Z,977.69
2023-03-06T07:28:42.990Z,977.69
2023-03-06T07:29:33.778Z,977.67
2023-03-06T07:30:31.753Z,977.64
2023-03-06T07:31:31.754Z,977.70
2023-03-06T07:32:31.776Z,977.73
2023-03-06T07:33:31.694Z,977.71
2023-03-06T07:34:31.710Z,977.70
2023-03-06T07:35:31.686Z,977.72
2023-03-06T07:36:31.678Z,977.73
2023-03-06T07:37:31.679Z,977.65
2023-03-06T07:38:31.648Z,977.72
2023-03-06T07:39:31.655Z,977.74
2023-03-06T07:40:31.642Z,977.74
2023-03-06T07:41:31.668Z,977.72
2023-03-06T07:42:31.608Z,977.74
2023-03-06T07:43:31.602Z,977.71
2023-03-06T07:44:31.634Z,977.71
2023-03-06T07:45:31.615Z,977.68
2023-03-06T07:46:31.640Z,977.70
2023-03-06T07:47:31.600Z,977.73
2023-03-06T07:48:31.572Z,977.72
2023-03-06T07:49:31.551Z,977.74
2023-03-06T07:50:31.542Z,977.73
2023-03-06T07:51:31.553Z,977.69
2023-03-06T07:52:31.533Z,977.72
2023-03-06T07:53:31.524Z,977.68
2023-03-06T07:54:31.487Z,977.70
2023-03-06T07:55:31.506Z,977.75
2023-03-06T07:56:31.503Z,977.74
2023-03-06T07:57:31.469Z,977.70
2023-03-06T07:58:31.533Z,977.73
2023-03-06T07:59:31.470Z,977.72
2023-03-06T08:00:31.454Z,977.75
2023-03-06T08:01:31.447Z,977.69
2023-03-06T08:02:31.441Z,977.74
2023-03-06T08:03:31.462Z,977.76
2023-03-06T08:04:31.406Z,977.71
2023-03-06T08:05:31.402Z,977.70
2023-03-06T08:06:31.389Z,977.78
2023-03-06T08:07:31.405Z,977.77
2023-03-06T08:08:31.355Z,977.79
2023-03-06T08:09:31.382Z,977.75
2023-03-06T08:10:31.352Z,977.78
2023-03-06T08:11:31.359Z,977.79
2023-03-06T08:12:31.311Z,977.80
2023-03-06T08:13:31.323Z,977.73
2023-03-06T08:14:31.299Z,977.71
2023-03-06T08:15:31.355Z,977.73
2023-03-06T08:16:31.314Z,977.76
2023-03-06T08:17:31.262Z,977.77
2023-03-06T08:18:31.278Z,977.71
2023-03-06T08:19:31.268Z,977.75
2023-03-06T08:20:31.239Z,977.83
2023-03-06T08:21:31.246Z,977.80
2023-03-06T08:22:31.220Z,977.75
2023-03-06T08:23:31.223Z,977.80
2023-03-06T08:24:31.237Z,977.73
2023-03-06T08:25:31.196Z,977.73
2023-03-06T08:26:31.198Z,977.75
2023-03-06T08:27:31.170Z,977.74
2023-03-06T08:28:31.195Z,977.72
2023-03-06T08:29:32.338Z,977.66
2023-03-06T08:30:31.145Z,977.70
2023-03-06T08:31:31.172Z,977.65
2023-03-06T08:32:32.203Z,977.65
2023-03-06T08:33:31.122Z,977.67
2023-03-06T08:34:31.106Z,977.65
2023-03-06T08:35:31.144Z,977.61
2023-03-06T08:36:31.116Z,977.64
2023-03-06T08:37:31.137Z,977.69
2023-03-06T08:38:31.067Z,977.73
2023-03-06T08:39:31.075Z,977.75
2023-03-06T08:40:31.086Z,977.70
2023-03-06T08:41:31.043Z,977.76
2023-03-06T08:42:31.049Z,977.68
2023-03-06T08:43:31.026Z,977.74
2023-03-06T08:44:31.059Z,977.70
2023-03-06T08:45:31.090Z,977.66
2023-03-06T08:46:31.005Z,977.68
2023-03-06T08:47:30.995Z,977.68
2023-03-06T08:48:31.060Z,977.66
2023-03-06T08:49:30.990Z,977.69
2023-03-06T08:50:30.961Z,977.66
2023-03-06T08:51:30.987Z,977.70
2023-03-06T08:52:30.940Z,977.60
2023-03-06T08:53:42.560Z,977.67
2023-03-06T08:54:32.936Z,977.71
2023-03-06T08:55:30.913Z,977.73
2023-03-06T08:56:30.918Z,977.71
2023-03-06T08:57:30.898Z,977.72
2023-03-06T08:58:30.892Z,977.69
2023-03-06T08:59:30.875Z,977.65
2023-03-06T09:00:30.895Z,977.69
2023-03-06T09:01:30.915Z,977.69
2023-03-06T09:02:30.849Z,977.71
2023-03-06T09:03:30.842Z,977.72
2023-03-06T09:04:30.909Z,977.73
2023-03-06T09:05:30.826Z,977.75
2023-03-06T09:06:30.844Z,977.77
2023-03-06T09:07:30.800Z,977.75
2023-03-06T09:08:30.786Z,977.72
2023-03-06T09:09:30.779Z,977.74
2023-03-06T09:10:30.800Z,977.74
2023-03-06T09:11:30.784Z,977.74
2023-03-06T09:12:34.703Z,977.77
2023-03-06T09:13:32.720Z,977.80
2023-03-06T09:14:30.716Z,977.83
2023-03-06T09:15:30.744Z,977.78
2023-03-06T09:16:30.732Z,977.79
2023-03-06T09:17:30.780Z,977.75
2023-03-06T09:18:30.678Z,977.76
2023-03-06T09:19:30.691Z,977.78
2023-03-06T09:20:30.661Z,977.76
2023-03-06T09:21:30.665Z,977.70
2023-03-06T09:22:31.662Z,977.74
2023-03-06T09:23:30.632Z,977.73
2023-03-06T09:24:30.650Z,977.75
2023-03-06T09:25:30.633Z,977.74
2023-03-06T09:26:45.156Z,977.69
2023-03-06T09:27:31.618Z,977.69
2023-03-06T09:28:30.602Z,977.71
2023-03-06T09:29:30.599Z,977.72
2023-03-06T09:30:30.597Z,977.76
2023-03-06T09:31:30.572Z,977.80
2023-03-06T09:32:30.575Z,977.84
2023-03-06T09:33:30.567Z,977.80
2023-03-06T09:34:30.530Z,977.80
2023-03-06T09:35:30.620Z,977.81
2023-03-06T09:36:30.525Z,977.82
2023-03-06T09:37:30.536Z,977.83
2023-03-06T09:38:30.526Z,977.85
2023-03-06T09:39:30.493Z,977.87
2023-03-06T09:40:30.488Z,977.88
2023-03-06T09:41:30.482Z,977.87
2023-03-06T09:42:30.478Z,977.84
2023-03-06T09:43:30.454Z,977.79
2023-03-06T09:44:30.442Z,977.78
2023-03-06T09:45:30.432Z,977.86
2023-03-06T09:46:30.510Z,977.72
2023-03-06T09:47:30.434Z,977.69
2023-03-06T09:48:30.404Z,977.73
2023-03-06T09:49:30.373Z,977.71
2023-03-06T09:50:30.367Z,977.78
2023-03-06T09:51:30.379Z,977.72
2023-03-06T09:52:30.357Z,977.79
2023-03-06T09:53:31.363Z,977.71
2023-03-06T09:54:30.347Z,977.71
2023-03-06T09:55:30.313Z,977.72
2023-03-06T09:56:30.301Z,977.79
2023-03-06T09:57:30.297Z,977.61
2023-03-06T09:58:30.292Z,977.64
2023-03-06T09:59:30.297Z,977.71
2023-03-06T10:00:30.286Z,977.82
2023-03-06T10:01:30.252Z,977.72
2023-03-06T10:02:30.357Z,977.74
2023-03-06T10:03:30.293Z,977.72
2023-03-06T10:04:30.238Z,977.69
2023-03-06T10:05:30.211Z,977.72
2023-03-06T10:06:30.260Z,977.66
2023-03-06T10:07:30.189Z,977.69
2023-03-06T10:08:30.194Z,977.63
2023-03-06T10:09:30.190Z,977.69
2023-03-06T10:10:30.189Z,977.71
2023-03-06T10:11:30.153Z,977.69
2023-03-06T10:12:30.229Z,977.64
2023-03-06T10:13:30.146Z,977.57
2023-03-06T10:14:30.122Z,977.66
2023-03-06T10:15:30.212Z,977.63
2023-03-06T10:16:30.103Z,977.69
2023-03-06T10:17:30.098Z,977.68
2023-03-06T10:18:30.079Z,977.67
2023-03-06T10:19:30.079Z,977.59
2023-03-06T10:20:30.058Z,977.64
2023-03-06T10:21:30.080Z,977.62
2023-03-06T10:22:30.076Z,977.67
2023-03-06T10:23:30.035Z,977.68
2023-03-06T10:24:30.037Z,977.62
2023-03-06T10:25:30.016Z,977.65
2023-03-06T10:26:30.162Z,977.63
2023-03-06T10:27:29.999Z,977.67
2023-03-06T10:28:29.985Z,977.74
2023-03-06T10:29:29.989Z,977.75
2023-03-06T10:30:29.984Z,977.64
2023-03-06T10:31:30.006Z,977.70
2023-03-06T10:32:39.546Z,977.65
2023-03-06T10:33:31.962Z,977.67
2023-03-06T10:34:29.973Z,977.62
2023-03-06T10:35:30.751Z,977.66
2023-03-06T10:36:30.937Z,977.67
2023-03-06T10:37:31.638Z,977.70
2023-03-06T10:38:29.903Z,977.67
2023-03-06T10:39:29.892Z,977.66
2023-03-06T10:40:29.876Z,977.58
2023-03-06T10:41:29.882Z,977.59
2023-03-06T10:42:29.844Z,977.54
2023-03-06T10:43:30.872Z,977.54
2023-03-06T10:44:29.845Z,977.53
2023-03-06T10:45:35.323Z,977.58
2023-03-06T10:46:30.840Z,977.55
2023-03-06T10:47:29.811Z,977.54
2023-03-06T10:48:29.803Z,977.61
2023-03-06T10:49:29.908Z,977.56
2023-03-06T10:50:29.773Z,977.61
2023-03-06T10:51:29.775Z,977.62
2023-03-06T10:52:29.769Z,977.61
2023-03-06T10:53:29.757Z,977.65
2023-03-06T10:54:29.767Z,977.64
2023-03-06T10:55:29.753Z,977.66
2023-03-06T10:56:29.734Z,977.68
2023-03-06T10:57:29.763Z,977.69
2023-03-06T10:58:29.707Z,977.63
2023-03-06T10:59:29.719Z,977.62
2023-03-06T11:00:29.684Z,977.66
2023-03-06T11:01:29.686Z,977.63
2023-03-06T11:02:29.681Z,977.59
2023-03-06T11:03:29.655Z,977.56
2023-03-06T11:04:29.715Z,977.61
2023-03-06T11:05:29.644Z,977.63
2023-03-06T11:06:29.648Z,977.66
2023-03-06T11:07:29.634Z,977.59
2023-03-06T11:08:30.410Z,977.65
2023-03-06T11:09:29.583Z,977.59
2023-03-06T11:10:29.579Z,977.62
2023-03-06T11:11:37.419Z,977.62
2023-03-06T11:12:31.560Z,977.63
2023-03-06T11:13:29.560Z,977.59
2023-03-06T11:14:29.563Z,977.56
2023-03-06T11:15:29.533Z,977.53
2023-03-06T11:16:29.583Z,977.56
2023-03-06T11:17:29.508Z,977.65
2023-03-06T11:18:29.500Z,977.55
2023-03-06T11:19:29.490Z,977.58
2023-03-06T11:20:41.295Z,977.57
2023-03-06T11:21:31.834Z,977.62
2023-03-06T11:22:30.464Z,977.52
2023-03-06T11:23:29.443Z,977.47
2023-03-06T11:24:29.457Z,977.52
2023-03-06T11:25:29.426Z,977.52
2023-03-06T11:26:29.407Z,977.57
2023-03-06T11:27:29.409Z,977.66
2023-03-06T11:28:29.396Z,977.53
2023-03-06T11:29:29.828Z,977.63
2023-03-06T11:30:30.381Z,977.60
2023-03-06T11:31:29.417Z,977.46
2023-03-06T11:32:29.388Z,977.50
2023-03-06T11:33:29.334Z,977.51
2023-03-06T11:34:29.339Z,977.42
2023-03-06T11:35:29.342Z,977.47
2023-03-06T11:36:29.335Z,977.43
2023-03-06T11:37:29.315Z,977.46
2023-03-06T11:38:29.459Z,977.46
2023-03-06T11:39:29.294Z,977.39
2023-03-06T11:40:29.306Z,977.38
2023-03-06T11:41:29.261Z,977.40
2023-03-06T11:42:29.289Z,977.35
2023-03-06T11:43:29.243Z,977.33
2023-03-06T11:44:29.244Z,977.34
2023-03-06T11:45:29.225Z,977.28
2023-03-06T11:46:29.261Z,977.18
2023-03-06T11:47:29.229Z,977.26
2023-03-06T11:48:29.233Z,977.32
2023-03-06T11:49:29.213Z,977.31
2023-03-06T11:50:29.175Z,977.35
2023-03-06T11:51:29.169Z,977.32
2023-03-06T11:52:29.183Z,977.34
2023-03-06T11:53:29.136Z,977.34
2023-03-06T11:54:29.144Z,977.35
2023-03-06T11:55:29.122Z,977.36
2023-03-06T11:56:31.462Z,977.35
2023-03-06T11:57:29.130Z,977.36
2023-03-06T11:58:29.112Z,977.33
2023-03-06T11:59:29.099Z,977.33
2023-03-06T12:00:29.100Z,977.34
2023-03-06T12:01:29.070Z,977.29
2023-03-06T12:02:29.159Z,977.36
2023-03-06T12:03:29.063Z,977.26
2023-03-06T12:04:29.076Z,977.35
2023-03-06T12:05:29.084Z,977.28
2023-03-06T12:06:29.032Z,977.31
2023-03-06T12:07:29.037Z,977.25
2023-03-06T12:08:29.012Z,977.30
2023-03-06T12:09:29.066Z,977.33
2023-03-06T12:10:28.978Z,977.29
2023-03-06T12:11:30.647Z,977.27
2023-03-06T12:12:28.982Z,977.29
2023-03-06T12:13:28.985Z,977.27
2023-03-06T12:14:28.973Z,977.23
2023-03-06T12:15:28.942Z,977.22
2023-03-06T12:16:29.019Z,977.23
2023-03-06T12:17:28.902Z,977.21
2023-03-06T12:18:28.897Z,977.17
2023-03-06T12:19:28.908Z,977.13
2023-03-06T12:20:28.901Z,977.17
2023-03-06T12:21:28.866Z,977.19
2023-03-06T12:22:31.039Z,977.17
2023-03-06T12:23:28.846Z,977.08
2023-03-06T12:24:28.846Z,977.18
2023-03-06T12:25:28.830Z,977.16
2023-03-06T12:26:28.856Z,977.11
2023-03-06T12:27:28.795Z,977.12
2023-03-06T12:28:29.817Z,977.17